Time;durP1;ratioP1;P1;durP2;ratioP2;P2;SDS_P1;SDS_P2;PMS_P1;PMS_P2;Temp;Humidity;BMP_temperature;BMP_pressure;BME280_temperature;BME280_humidity;BME280_pressure;Samples;Min_cycle;Max_cycle;Signal;HPM_P1;HPM_P2
2021/07/28 00:00:52;;;;;;;7.40;6.38;;;19.60;86.40;;;;;;5056131;28;20558;-81
2021/07/28 00:03:17;;;;;;;9.02;6.93;;;19.70;86.00;;;;;;5056007;28;20033;-81
2021/07/28 00:05:43;;;;;;;11.00;7.78;;;19.80;85.60;;;;;;5055803;28;20041;-80
2021/07/28 00:08:08;;;;;;;9.35;7.55;;;19.80;84.90;;;;;;5056011;28;20028;-81
2021/07/28 00:10:34;;;;;;;12.35;7.35;;;19.80;84.80;;;;;;5055797;28;20509;-81
2021/07/28 00:12:59;;;;;;;9.43;7.65;;;19.80;84.80;;;;;;5055773;28;20447;-81
2021/07/28 00:15:25;;;;;;;10.65;7.63;;;19.80;84.80;;;;;;5055805;28;20098;-81
2021/07/28 00:17:53;;;;;;;10.75;6.95;;;19.70;84.70;;;;;;5055618;28;20078;-79
2021/07/28 00:23:15;;;;;;;8.13;6.93;;;19.80;84.10;;;;;;5055653;28;20052;-80
2021/07/28 00:25:45;;;;;;;14.38;7.78;;;19.80;83.70;;;;;;5055682;28;20485;-80
2021/07/28 00:28:14;;;;;;;10.73;7.75;;;19.70;83.60;;;;;;5055443;28;20021;-80
2021/07/28 00:30:43;;;;;;;11.68;7.68;;;19.40;84.70;;;;;;5037540;28;20037;-80
2021/07/28 00:33:09;;;;;;;10.38;8.00;;;19.30;85.40;;;;;;5055340;28;20017;-80
2021/07/28 00:35:34;;;;;;;10.43;8.30;;;19.40;85.20;;;;;;5055399;28;20029;-80
2021/07/28 00:38:07;;;;;;;10.57;7.85;;;19.50;85.10;;;;;;5055483;28;20052;-79
2021/07/28 00:40:33;;;;;;;12.50;8.63;;;19.40;85.00;;;;;;5055346;28;20017;-80
2021/07/28 00:43:10;;;;;;;11.10;8.02;;;19.40;84.00;;;;;;5055285;28;20483;-79
2021/07/28 00:45:35;;;;;;;13.13;7.25;;;19.40;84.00;;;;;;5055364;28;20055;-80
2021/07/28 00:48:01;;;;;;;9.15;7.15;;;19.50;84.10;;;;;;5055095;28;20021;-80
2021/07/28 00:50:26;;;;;;;9.27;7.40;;;19.50;84.50;;;;;;5054972;28;20025;-81
2021/07/28 00:52:52;;;;;;;8.90;7.57;;;19.60;84.70;;;;;;5055120;28;20473;-81
2021/07/28 00:55:18;;;;;;;10.50;7.53;;;19.50;85.00;;;;;;5054951;28;20383;-80
2021/07/28 00:57:43;;;;;;;11.30;7.32;;;19.50;85.30;;;;;;5055053;28;20111;-80
2021/07/28 01:00:09;;;;;;;11.07;7.72;;;19.50;85.50;;;;;;5036943;28;20460;-80
2021/07/28 01:02:35;;;;;;;8.48;6.55;;;19.50;85.50;;;;;;5054944;28;20021;-81
2021/07/28 01:05:00;;;;;;;10.45;7.85;;;19.50;85.70;;;;;;5054154;28;20379;-81
2021/07/28 01:07:27;;;;;;;9.55;6.95;;;19.50;85.80;;;;;;5054884;28;20051;-81
2021/07/28 01:09:52;;;;;;;10.25;6.85;;;19.50;86.00;;;;;;5055148;28;20132;-81
2021/07/28 01:12:18;;;;;;;8.93;7.45;;;19.50;86.10;;;;;;5054749;28;20442;-81
2021/07/28 01:14:44;;;;;;;9.45;7.68;;;19.40;86.20;;;;;;5054567;28;20036;-80
2021/07/28 01:17:10;;;;;;;11.50;8.00;;;19.40;86.20;;;;;;5054545;28;20016;-81
2021/07/28 01:19:43;;;;;;;9.98;6.57;;;19.40;86.50;;;;;;5054911;28;20438;-80
2021/07/28 01:22:10;;;;;;;10.43;7.32;;;19.40;86.50;;;;;;5054613;28;20465;-80
2021/07/28 01:24:36;;;;;;;11.02;8.15;;;19.40;86.60;;;;;;5055012;28;20025;-76
2021/07/28 01:27:03;;;;;;;9.23;6.82;;;19.40;86.70;;;;;;5054767;28;20066;-77
2021/07/28 01:29:29;;;;;;;9.15;6.90;;;19.40;86.80;;;;;;5036721;28;20021;-75
2021/07/28 01:31:56;;;;;;;9.82;7.28;;;19.40;86.70;;;;;;5055080;28;20104;-76
2021/07/28 01:34:22;;;;;;;8.48;7.10;;;19.50;86.60;;;;;;5055144;28;20020;-76
2021/07/28 01:36:49;;;;;;;11.07;7.82;;;19.40;86.40;;;;;;5054831;28;20100;-75
2021/07/28 01:39:15;;;;;;;10.65;7.80;;;19.40;86.20;;;;;;5054450;28;20036;-75
2021/07/28 01:41:40;;;;;;;11.05;8.02;;;19.40;86.20;;;;;;5054801;28;20025;-75
2021/07/28 01:44:06;;;;;;;10.48;7.53;;;19.40;86.40;;;;;;5055620;28;20025;-76
2021/07/28 01:46:31;;;;;;;8.98;7.40;;;19.30;86.50;;;;;;5055491;28;20084;-75
2021/07/28 01:48:57;;;;;;;8.65;7.30;;;19.30;86.60;;;;;;5057909;28;20033;-75
2021/07/28 01:51:23;;;;;;;12.18;7.68;;;19.30;86.60;;;;;;5061921;28;20025;-74
2021/07/28 01:53:48;;;;;;;12.15;8.77;;;19.20;86.50;;;;;;5063181;28;20032;-75
2021/07/28 01:56:15;;;;;;;11.32;7.90;;;19.20;86.60;;;;;;5065577;28;20032;-76
2021/07/28 01:58:43;;;;;;;10.88;7.30;;;19.10;86.70;;;;;;5063866;28;20104;-75
2021/07/28 02:01:09;;;;;;;9.82;7.13;;;19.10;87.10;;;;;;5073381;28;20036;-74
2021/07/28 02:03:34;;;;;;;8.65;7.55;;;19.00;87.20;;;;;;5071116;28;20021;-74
2021/07/28 02:06:00;;;;;;;8.15;7.13;;;18.90;87.60;;;;;;5061908;28;20501;-77
2021/07/28 02:08:26;;;;;;;9.30;7.28;;;18.90;87.80;;;;;;5076175;28;20083;-76
2021/07/28 02:10:51;;;;;;;9.20;6.82;;;18.90;87.90;;;;;;5071867;28;20070;-73
2021/07/28 02:13:19;;;;;;;10.15;7.05;;;18.80;87.80;;;;;;5060085;28;20025;-73
2021/07/28 02:15:45;;;;;;;8.65;7.68;;;18.80;88.00;;;;;;5058916;28;20021;-75
2021/07/28 02:18:11;;;;;;;11.05;8.00;;;18.80;88.00;;;;;;5060136;28;20021;-74
2021/07/28 02:20:37;;;;;;;8.45;7.20;;;18.70;87.90;;;;;;5058921;28;20052;-75
2021/07/28 02:23:03;;;;;;;10.40;8.25;;;18.70;88.80;;;;;;5055526;28;20494;-74
2021/07/28 02:25:28;;;;;;;10.20;8.57;;;18.60;87.90;;;;;;5056044;28;20033;-75
2021/07/28 02:27:54;;;;;;;8.55;7.65;;;18.50;88.30;;;;;;5055297;28;20032;-74
2021/07/28 02:30:20;;;;;;;10.68;8.23;;;18.50;88.30;;;;;;5055791;28;20045;-79
2021/07/28 02:32:47;;;;;;;15.00;9.40;;;18.50;88.40;;;;;;5057679;28;20025;-79
2021/07/28 02:35:14;;;;;;;9.73;8.05;;;18.40;88.30;;;;;;5057830;28;20473;-75
2021/07/28 02:37:41;;;;;;;10.27;7.30;;;18.40;88.20;;;;;;5057027;28;20089;-79
2021/07/28 02:40:12;;;;;;;10.05;8.27;;;18.40;88.30;;;;;;5054432;28;20021;-78
2021/07/28 02:42:38;;;;;;;10.52;8.25;;;18.40;88.20;;;;;;5054347;28;20059;-77
2021/07/28 02:45:04;;;;;;;10.52;7.70;;;18.40;88.10;;;;;;5054170;28;20017;-77
2021/07/28 02:47:30;;;;;;;17.50;9.88;;;18.30;88.00;;;;;;5053830;28;20119;-75
2021/07/28 02:49:55;;;;;;;10.70;8.80;;;18.40;87.80;;;;;;5053761;28;20060;-77
2021/07/28 02:52:21;;;;;;;11.50;8.30;;;18.30;87.70;;;;;;5054396;28;20037;-74
2021/07/28 02:54:47;;;;;;;10.88;8.98;;;18.30;87.80;;;;;;5053907;28;20028;-76
2021/07/28 02:57:12;;;;;;;12.38;8.77;;;18.20;87.80;;;;;;5053966;28;20025;-75
2021/07/28 02:59:38;;;;;;;10.27;8.60;;;18.10;88.00;;;;;;5036007;28;20067;-76
2021/07/28 03:02:04;;;;;;;11.13;8.82;;;18.10;88.20;;;;;;5053541;28;20056;-75
2021/07/28 03:04:30;;;;;;;9.65;7.60;;;18.00;88.20;;;;;;5053863;28;20072;-73
2021/07/28 03:06:55;;;;;;;9.45;7.47;;;18.10;88.40;;;;;;5053760;28;20354;-73
2021/07/28 03:09:21;;;;;;;8.52;7.55;;;18.10;88.40;;;;;;5054191;28;20028;-73
2021/07/28 03:11:47;;;;;;;9.52;7.72;;;18.20;88.40;;;;;;5053771;28;20390;-74
2021/07/28 03:14:12;;;;;;;12.52;8.40;;;18.20;88.40;;;;;;5053922;28;20022;-73
2021/07/28 03:16:41;;;;;;;10.63;7.57;;;18.20;88.40;;;;;;5053930;28;20021;-73
2021/07/28 03:19:06;;;;;;;12.13;7.78;;;18.20;88.20;;;;;;5053300;28;20013;-74
2021/07/28 03:21:33;;;;;;;11.07;7.85;;;18.20;88.10;;;;;;5053493;28;20017;-74
2021/07/28 03:23:59;;;;;;;7.88;7.07;;;18.20;88.10;;;;;;5053355;28;20032;-73
2021/07/28 03:26:24;;;;;;;8.45;7.07;;;18.20;88.10;;;;;;5053211;28;20020;-75
2021/07/28 03:28:50;;;;;;;8.88;7.43;;;18.20;88.00;;;;;;5055718;28;20381;-73
2021/07/28 03:31:16;;;;;;;9.75;6.88;;;18.20;87.90;;;;;;5056841;28;20033;-74
2021/07/28 03:33:41;;;;;;;10.10;7.43;;;18.30;88.00;;;;;;5056990;28;20049;-73
2021/07/28 03:36:07;;;;;;;9.40;7.40;;;18.30;87.70;;;;;;5056530;28;20024;-74
2021/07/28 03:38:33;;;;;;;9.43;6.80;;;18.30;87.60;;;;;;5056659;28;20031;-74
2021/07/28 03:40:58;;;;;;;11.15;7.30;;;18.30;87.60;;;;;;5056754;28;20033;-74
2021/07/28 03:43:24;;;;;;;10.13;7.78;;;18.20;87.60;;;;;;5056631;28;20021;-74
2021/07/28 03:45:50;;;;;;;9.63;7.70;;;18.20;87.80;;;;;;5056526;28;20035;-74
2021/07/28 03:48:15;;;;;;;11.73;7.35;;;18.20;87.80;;;;;;5056311;28;20090;-74
2021/07/28 03:50:41;;;;;;;9.85;7.80;;;18.20;87.80;;;;;;5056321;28;20033;-74
2021/07/28 03:53:06;;;;;;;12.02;7.45;;;18.20;87.70;;;;;;5056290;28;20053;-74
2021/07/28 03:55:32;;;;;;;8.30;7.50;;;18.20;87.70;;;;;;5056160;28;20025;-74
2021/07/28 03:57:58;;;;;;;9.13;7.32;;;18.20;87.80;;;;;;5056091;28;20017;-74
2021/07/28 04:00:23;;;;;;;10.68;7.47;;;18.20;87.90;;;;;;5055777;28;20378;-75
2021/07/28 04:02:49;;;;;;;8.52;7.60;;;18.10;88.20;;;;;;5056004;28;20393;-75
2021/07/28 04:05:15;;;;;;;12.02;7.85;;;18.20;88.30;;;;;;5055845;28;20178;-75
2021/07/28 04:07:41;;;;;;;11.25;8.80;;;18.10;88.20;;;;;;5038041;28;20496;-76
2021/07/28 04:10:08;;;;;;;8.77;7.88;;;18.10;88.40;;;;;;5055703;28;20100;-75
2021/07/28 04:12:34;;;;;;;10.73;7.93;;;18.10;88.30;;;;;;5055695;28;20024;-74
2021/07/28 04:14:59;;;;;;;11.57;8.15;;;18.00;88.40;;;;;;5055893;28;20025;-73
2021/07/28 04:17:25;;;;;;;11.02;8.85;;;18.10;89.50;;;;;;5055845;28;20029;-74
2021/07/28 04:19:50;;;;;;;12.55;8.10;;;18.00;88.90;;;;;;5055777;28;20547;-74
2021/07/28 04:22:17;;;;;;;10.38;8.25;;;18.10;89.00;;;;;;5055648;28;20053;-75
2021/07/28 04:24:43;;;;;;;9.38;7.82;;;18.00;88.70;;;;;;5055684;28;20021;-73
2021/07/28 04:27:09;;;;;;;11.48;7.85;;;18.00;88.80;;;;;;5055483;28;20017;-74
2021/07/28 04:29:34;;;;;;;10.40;7.90;;;18.00;88.80;;;;;;5055541;28;20370;-73
2021/07/28 04:32:00;;;;;;;10.77;8.02;;;18.00;88.90;;;;;;5055572;28;20033;-75
2021/07/28 04:34:26;;;;;;;8.40;7.43;;;18.00;89.00;;;;;;5055417;28;20128;-74
2021/07/28 04:36:51;;;;;;;7.50;6.68;;;18.00;89.00;;;;;;5055331;28;20514;-75
2021/07/28 04:39:17;;;;;;;11.82;8.23;;;18.00;88.80;;;;;;5054284;28;20021;-75
2021/07/28 04:41:42;;;;;;;10.80;7.55;;;18.00;88.80;;;;;;5055197;28;20086;-73
2021/07/28 04:44:08;;;;;;;10.40;8.13;;;18.10;88.80;;;;;;5055076;28;20032;-75
2021/07/28 04:46:33;;;;;;;15.52;8.27;;;18.10;88.60;;;;;;5055325;28;20017;-74
2021/07/28 04:48:59;;;;;;;12.38;8.10;;;18.10;88.40;;;;;;5055228;28;20516;-74
2021/07/28 04:51:26;;;;;;;10.48;7.65;;;18.10;88.30;;;;;;5055100;28;20095;-74
2021/07/28 04:53:52;;;;;;;11.80;7.70;;;18.00;88.10;;;;;;5055144;28;20378;-73
2021/07/28 04:56:17;;;;;;;8.68;7.05;;;18.00;88.30;;;;;;5037003;28;20029;-74
2021/07/28 04:58:43;;;;;;;10.43;7.43;;;18.00;88.40;;;;;;5055075;28;20473;-77
2021/07/28 05:01:08;;;;;;;17.13;8.13;;;18.00;88.30;;;;;;5054836;28;20029;-73
2021/07/28 05:03:34;;;;;;;8.63;7.47;;;18.00;88.10;;;;;;5055040;28;20282;-77
2021/07/28 05:06:00;;;;;;;9.93;6.13;;;17.90;88.30;;;;;;5054703;28;20582;-78
2021/07/28 05:08:25;;;;;;;14.77;6.68;;;17.90;86.50;;;;;;5054782;28;20527;-77
2021/07/28 05:10:51;;;;;;;8.55;6.50;;;17.70;85.60;;;;;;5054720;28;20485;-78
2021/07/28 05:13:16;;;;;;;9.77;6.82;;;17.70;86.30;;;;;;5054683;28;20028;-76
2021/07/28 05:15:42;;;;;;;10.57;6.10;;;17.70;85.90;;;;;;5054449;28;20029;-76
2021/07/28 05:18:08;;;;;;;7.95;6.40;;;17.70;85.40;;;;;;5054349;28;20064;-77
2021/07/28 05:20:34;;;;;;;12.55;6.70;;;17.70;85.50;;;;;;5054311;28;20473;-78
2021/07/28 05:22:59;;;;;;;6.47;5.68;;;17.60;85.80;;;;;;5054368;28;20108;-77
2021/07/28 05:25:28;;;;;;;6.55;5.50;;;17.60;86.00;;;;;;5054143;28;20029;-74
2021/07/28 05:27:54;;;;;;;7.28;5.32;;;17.70;86.10;;;;;;5054273;28;20017;-77
2021/07/28 05:30:20;;;;;;;8.48;6.18;;;17.80;86.10;;;;;;5053561;28;20506;-77
2021/07/28 05:32:45;;;;;;;7.20;5.88;;;17.80;86.10;;;;;;5036041;28;20106;-76
2021/07/28 05:35:11;;;;;;;10.57;6.20;;;17.90;86.10;;;;;;5054014;28;20021;-75
2021/07/28 05:37:37;;;;;;;9.55;5.88;;;18.00;86.10;;;;;;5053921;28;20166;-77
2021/07/28 05:40:03;;;;;;;6.55;5.70;;;18.10;86.40;;;;;;5053910;28;20049;-74
2021/07/28 05:42:29;;;;;;;7.80;6.35;;;18.00;86.20;;;;;;5036996;28;20166;-73
2021/07/28 05:44:54;;;;;;;8.98;6.57;;;18.10;86.30;;;;;;5076872;28;20051;-75
2021/07/28 05:47:20;;;;;;;11.98;6.97;;;18.00;85.90;;;;;;5069321;28;20029;-77
2021/07/28 05:49:45;;;;;;;8.95;6.50;;;17.90;86.50;;;;;;5053844;28;20532;-76
2021/07/28 05:52:11;;;;;;;6.57;5.63;;;17.80;86.10;;;;;;5053583;28;20029;-81
2021/07/28 05:54:37;;;;;;;9.55;5.63;;;17.80;85.80;;;;;;5053750;28;20029;-74
2021/07/28 05:57:03;;;;;;;9.60;6.25;;;17.90;85.70;;;;;;5053636;28;20036;-77
2021/07/28 05:59:28;;;;;;;24.25;7.70;;;18.00;85.50;;;;;;5053661;28;20029;-76
2021/07/28 06:01:54;;;;;;;13.02;6.68;;;18.00;85.10;;;;;;5053713;28;20029;-79
2021/07/28 06:04:19;;;;;;;9.02;5.40;;;18.00;84.30;;;;;;5053198;28;20056;-74
2021/07/28 06:06:45;;;;;;;5.88;4.82;;;18.10;83.30;;;;;;5053546;28;20027;-76
2021/07/28 06:09:10;;;;;;;7.20;5.05;;;18.10;82.90;;;;;;5053288;28;20086;-79
2021/07/28 06:11:36;;;;;;;7.72;5.10;;;18.20;82.10;;;;;;5053014;28;20040;-79
2021/07/28 06:14:01;;;;;;;13.27;5.50;;;18.30;82.50;;;;;;5053329;28;20033;-75
2021/07/28 06:16:27;;;;;;;9.93;5.50;;;18.40;83.10;;;;;;5035306;28;20053;-78
2021/07/28 06:18:53;;;;;;;10.40;6.60;;;18.40;83.60;;;;;;5053399;28;20028;-82
2021/07/28 06:21:18;;;;;;;23.95;6.50;;;18.40;84.10;;;;;;5057079;28;20028;-88
2021/07/28 06:23:44;;;;;;;33.72;9.98;;;18.50;86.40;;;;;;5054723;28;20025;-84
2021/07/28 06:26:09;;;;;;;30.20;9.63;;;18.60;83.30;;;;;;5053379;28;20500;-78
2021/07/28 06:28:35;;;;;;;28.08;8.88;;;18.70;81.30;;;;;;5053082;28;20505;-77
2021/07/28 06:31:01;;;;;;;18.95;7.00;;;18.70;79.20;;;;;;5052909;28;20044;-76
2021/07/28 06:33:26;;;;;;;7.18;5.28;;;18.70;78.10;;;;;;5053068;28;20029;-76
2021/07/28 06:35:52;;;;;;;5.07;4.13;;;18.70;76.20;;;;;;5052850;28;20029;-74
2021/07/28 06:38:19;;;;;;;5.32;3.75;;;18.60;73.40;;;;;;5052999;28;20033;-74
2021/07/28 06:40:46;;;;;;;6.63;4.10;;;18.50;73.80;;;;;;5052848;28;20393;-75
2021/07/28 06:43:13;;;;;;;5.07;3.40;;;18.30;73.10;;;;;;5052801;28;20067;-76
2021/07/28 06:45:39;;;;;;;6.93;3.58;;;18.20;71.40;;;;;;5052199;28;20100;-73
2021/07/28 06:48:04;;;;;;;5.55;3.53;;;18.10;72.20;;;;;;5052158;28;20100;-75
2021/07/28 06:50:30;;;;;;;4.35;3.40;;;18.10;73.30;;;;;;5035081;28;20037;-74
2021/07/28 06:52:56;;;;;;;5.05;3.55;;;18.10;74.10;;;;;;5052948;28;20028;-74
2021/07/28 06:55:22;;;;;;;6.70;3.65;;;18.10;74.70;;;;;;5052716;28;20028;-74
2021/07/28 06:57:47;;;;;;;6.78;3.55;;;18.10;74.70;;;;;;5052576;28;20017;-74
2021/07/28 07:00:13;;;;;;;6.03;3.53;;;18.10;73.70;;;;;;5052593;28;20108;-75
2021/07/28 07:02:39;;;;;;;6.13;3.40;;;18.10;74.40;;;;;;5052339;28;20029;-76
2021/07/28 07:05:05;;;;;;;4.75;3.40;;;18.00;73.50;;;;;;5052377;28;20045;-73
2021/07/28 07:07:30;;;;;;;4.00;2.95;;;17.90;73.80;;;;;;5052556;28;20041;-74
2021/07/28 07:09:56;;;;;;;6.30;4.13;;;17.80;73.80;;;;;;5052642;28;20032;-74
2021/07/28 07:12:23;;;;;;;8.20;3.88;;;17.70;75.30;;;;;;5052677;28;20025;-76
2021/07/28 07:14:48;;;;;;;8.75;4.35;;;17.60;77.00;;;;;;5054878;28;20061;-75
2021/07/28 07:17:15;;;;;;;6.45;3.88;;;17.60;77.20;;;;;;5055551;28;20406;-78
2021/07/28 07:19:41;;;;;;;6.80;4.05;;;17.50;78.50;;;;;;5034836;28;20025;-79
2021/07/28 07:22:07;;;;;;;4.25;3.67;;;17.60;77.90;;;;;;5052601;28;20036;-79
2021/07/28 07:24:33;;;;;;;7.25;4.18;;;17.60;78.50;;;;;;5052781;28;20017;-77
2021/07/28 07:26:58;;;;;;;7.03;4.15;;;17.60;78.40;;;;;;5052814;28;20032;-78
2021/07/28 07:29:24;;;;;;;5.47;3.85;;;17.50;78.30;;;;;;5052589;28;20033;-79
2021/07/28 07:31:50;;;;;;;4.68;3.67;;;17.50;79.20;;;;;;5052569;28;20056;-77
2021/07/28 07:34:16;;;;;;;4.63;3.55;;;17.40;79.60;;;;;;5052574;28;20021;-79
2021/07/28 07:36:41;;;;;;;6.70;3.30;;;17.40;78.90;;;;;;5052526;28;20060;-76
2021/07/28 07:39:07;;;;;;;6.07;4.00;;;17.30;77.00;;;;;;5052347;28;20021;-76
2021/07/28 07:41:33;;;;;;;6.85;3.58;;;17.30;78.00;;;;;;5052627;28;20022;-77
2021/07/28 07:44:00;;;;;;;5.70;3.40;;;17.30;78.70;;;;;;5052532;28;20071;-75
2021/07/28 07:46:27;;;;;;;4.10;3.42;;;17.20;78.20;;;;;;5052237;28;20021;-75
2021/07/28 07:48:54;;;;;;;6.75;3.35;;;17.10;77.70;;;;;;5052737;28;20053;-76
2021/07/28 07:51:20;;;;;;;5.18;3.40;;;17.00;77.40;;;;;;5052617;28;20041;-75
2021/07/28 07:53:46;;;;;;;5.28;3.65;;;17.00;79.80;;;;;;5052499;28;20025;-75
2021/07/28 07:56:12;;;;;;;5.50;3.60;;;17.00;80.80;;;;;;5052363;28;20028;-75
2021/07/28 07:58:38;;;;;;;5.38;3.03;;;17.10;79.20;;;;;;5052278;28;20492;-76
2021/07/28 08:01:11;;;;;;;3.88;2.83;;;16.90;77.70;;;;;;5034386;28;20033;-76
2021/07/28 08:03:37;;;;;;;3.92;2.47;;;17.00;77.00;;;;;;5052306;28;20017;-74
2021/07/28 08:06:04;;;;;;;4.25;3.13;;;16.90;77.10;;;;;;5052025;28;20052;-75
2021/07/28 08:08:29;;;;;;;4.00;2.80;;;16.90;76.10;;;;;;5052051;28;20021;-75
2021/07/28 08:10:56;;;;;;;4.32;2.75;;;17.00;77.20;;;;;;5052285;28;20033;-74
2021/07/28 08:13:22;;;;;;;3.90;2.53;;;17.10;77.90;;;;;;5052352;28;20021;-74
2021/07/28 08:15:48;;;;;;;4.40;2.92;;;17.20;77.20;;;;;;5057313;28;20029;-73
2021/07/28 08:18:14;;;;;;;5.88;3.25;;;17.40;77.10;;;;;;5061010;28;20043;-79
2021/07/28 08:20:39;;;;;;;5.45;3.20;;;17.50;78.00;;;;;;5060327;28;20025;-80
2021/07/28 08:23:05;;;;;;;4.78;3.45;;;17.60;78.20;;;;;;5059115;28;20183;-77
2021/07/28 08:25:31;;;;;;;4.63;3.25;;;17.70;79.20;;;;;;5057314;28;20029;-74
2021/07/28 08:27:57;;;;;;;5.45;2.95;;;17.80;79.90;;;;;;5055562;28;20025;-73
2021/07/28 08:30:23;;;;;;;3.97;3.15;;;17.80;79.30;;;;;;5055480;28;20037;-75
2021/07/28 08:32:48;;;;;;;3.25;2.63;;;17.90;78.70;;;;;;5055728;28;20104;-78
2021/07/28 08:35:14;;;;;;;3.25;2.83;;;18.00;76.20;;;;;;5056310;28;20021;-75
2021/07/28 08:37:41;;;;;;;5.63;2.70;;;17.90;75.50;;;;;;5038620;28;20036;-80
2021/07/28 08:40:12;;;;;;;6.15;3.35;;;17.90;75.20;;;;;;5039153;28;20485;-76
2021/07/28 08:42:39;;;;;;;4.72;3.08;;;17.80;76.10;;;;;;5058958;28;20029;-74
2021/07/28 08:45:06;;;;;;;3.85;2.92;;;17.80;76.20;;;;;;5060407;28;20032;-75
2021/07/28 08:47:34;;;;;;;4.47;3.25;;;17.80;76.90;;;;;;5057018;28;20021;-75
2021/07/28 08:49:59;;;;;;;3.47;2.92;;;17.80;76.60;;;;;;5056609;28;20079;-74
2021/07/28 08:52:26;;;;;;;4.30;2.88;;;17.80;76.20;;;;;;5065822;28;20024;-74
2021/07/28 08:54:51;;;;;;;5.75;3.00;;;17.80;76.90;;;;;;5058489;28;20024;-74
2021/07/28 08:57:17;;;;;;;4.85;3.30;;;17.70;76.60;;;;;;5058435;28;20025;-74
2021/07/28 08:59:43;;;;;;;7.15;3.33;;;17.70;77.50;;;;;;5057307;28;20104;-74
2021/07/28 09:02:09;;;;;;;4.28;3.22;;;17.70;77.50;;;;;;5059334;28;20068;-74
2021/07/28 09:04:34;;;;;;;3.63;2.95;;;17.70;76.60;;;;;;5055030;28;20075;-75
2021/07/28 09:07:13;;;;;;;5.68;3.10;;;17.80;76.50;;;;;;5055317;28;20429;-75
2021/07/28 09:09:57;;;;;;;5.35;2.97;;;17.80;76.40;;;;;;5055063;28;20036;-78
2021/07/28 09:12:34;;;;;;;4.00;2.95;;;18.00;76.80;;;;;;5056197;28;20033;-78
2021/07/28 09:15:04;;;;;;;4.78;3.08;;;18.10;77.00;;;;;;5061364;28;20048;-76
2021/07/28 09:17:33;;;;;;;7.25;3.30;;;18.30;76.60;;;;;;5074961;28;20017;-74
2021/07/28 09:19:59;;;;;;;3.95;3.03;;;18.50;76.10;;;;;;5059125;28;20013;-78
2021/07/28 09:22:30;;;;;;;4.95;2.92;;;18.60;74.30;;;;;;5054704;28;20021;-80
2021/07/28 09:25:08;;;;;;;5.53;3.40;;;18.60;72.10;;;;;;5054289;28;20029;-78
2021/07/28 09:27:41;;;;;;;3.85;2.95;;;18.70;72.20;;;;;;5054611;28;20424;-79
2021/07/28 09:30:08;;;;;;;5.93;3.05;;;18.70;71.80;;;;;;5054249;28;20108;-78
2021/07/28 09:32:35;;;;;;;4.93;2.67;;;18.60;71.80;;;;;;5054408;28;20029;-79
2021/07/28 09:35:01;;;;;;;6.25;3.38;;;18.70;72.50;;;;;;5036277;28;20024;-78
2021/07/28 09:37:27;;;;;;;5.38;2.85;;;18.60;73.00;;;;;;5054393;28;20047;-78
2021/07/28 09:39:54;;;;;;;4.07;3.10;;;18.60;73.20;;;;;;5054003;28;20017;-79
2021/07/28 09:42:26;;;;;;;4.28;3.15;;;18.60;73.20;;;;;;5054185;28;20024;-79
2021/07/28 09:44:56;;;;;;;4.78;2.88;;;18.50;73.70;;;;;;5053951;28;20013;-79
2021/07/28 09:47:24;;;;;;;4.45;3.13;;;18.40;72.00;;;;;;5054144;28;20017;-79
2021/07/28 09:50:10;;;;;;;5.10;3.05;;;18.40;72.50;;;;;;5054229;28;20028;-76
2021/07/28 09:52:36;;;;;;;4.32;2.85;;;18.50;73.50;;;;;;5053786;28;20039;-79
2021/07/28 09:55:24;;;;;;;4.43;2.83;;;18.50;73.30;;;;;;5054117;28;20040;-80
2021/07/28 09:57:57;;;;;;;4.15;3.17;;;18.50;73.80;;;;;;5053831;28;20072;-79
2021/07/28 10:00:27;;;;;;;3.97;3.17;;;18.50;73.70;;;;;;5053783;28;20060;-78
2021/07/28 10:02:57;;;;;;;4.53;3.17;;;18.50;74.30;;;;;;5053642;28;20025;-78
2021/07/28 10:05:26;;;;;;;5.07;2.90;;;18.60;73.50;;;;;;5053415;28;20126;-76
2021/07/28 10:07:56;;;;;;;3.83;3.30;;;18.70;73.00;;;;;;5053995;28;20017;-79
2021/07/28 10:10:22;;;;;;;6.28;3.38;;;18.80;71.70;;;;;;5053516;28;20036;-79
2021/07/28 10:12:49;;;;;;;5.80;3.30;;;18.90;71.60;;;;;;5053364;28;20021;-80
2021/07/28 10:15:18;;;;;;;4.47;3.50;;;19.00;70.60;;;;;;5053504;28;20025;-80
2021/07/28 10:17:44;;;;;;;4.13;2.97;;;19.10;70.60;;;;;;5053477;28;20053;-81
2021/07/28 10:20:11;;;;;;;3.47;3.08;;;19.20;69.70;;;;;;5053151;28;20417;-80
2021/07/28 10:22:39;;;;;;;3.75;3.03;;;19.30;70.00;;;;;;5053295;28;20028;-79
2021/07/28 10:25:15;;;;;;;4.25;3.22;;;19.60;69.50;;;;;;5053119;28;20025;-80
2021/07/28 10:27:47;;;;;;;5.55;3.22;;;19.80;68.30;;;;;;5053378;28;20075;-80
2021/07/28 10:30:14;;;;;;;5.78;3.72;;;20.00;68.20;;;;;;5053121;28;20440;-81
2021/07/28 10:32:41;;;;;;;4.95;3.30;;;20.20;67.40;;;;;;5053169;28;20083;-81
2021/07/28 10:35:21;;;;;;;3.20;2.90;;;20.40;67.30;;;;;;5053181;28;20025;-81
2021/07/28 10:37:47;;;;;;;4.57;3.30;;;20.60;66.70;;;;;;5056922;28;20033;-79
2021/07/28 10:40:29;;;;;;;4.78;3.83;;;20.90;66.80;;;;;;5069110;28;20063;-81
2021/07/28 10:42:54;;;;;;;5.60;4.18;;;21.20;65.90;;;;;;5054164;28;20025;-79
2021/07/28 10:45:21;;;;;;;4.82;3.13;;;21.30;64.20;;;;;;5053099;28;20103;-81
2021/07/28 10:47:51;;;;;;;4.18;3.65;;;21.10;64.00;;;;;;5052981;28;20407;-81
2021/07/28 10:50:25;;;;;;;5.20;3.08;;;21.10;64.50;;;;;;5052575;28;20029;-81
2021/07/28 10:52:57;;;;;;;5.35;3.47;;;21.20;63.70;;;;;;5052819;28;20108;-80
2021/07/28 10:55:27;;;;;;;5.85;3.22;;;21.10;64.50;;;;;;5054514;28;20067;-81
2021/07/28 10:57:53;;;;;;;4.03;3.10;;;21.20;63.20;;;;;;5055143;28;20025;-81
2021/07/28 11:00:46;;;;;;;7.75;4.22;;;21.20;61.20;;;;;;5052753;28;20025;-80
2021/07/28 11:03:13;;;;;;;5.72;3.75;;;21.10;62.30;;;;;;5023122;28;20064;-80
2021/07/28 11:05:43;;;;;;;5.22;3.88;;;21.20;63.10;;;;;;5052622;28;20041;-80
2021/07/28 11:08:09;;;;;;;6.97;3.65;;;21.10;63.00;;;;;;5052556;28;20021;-80
2021/07/28 11:10:41;;;;;;;8.77;4.00;;;21.10;60.90;;;;;;5052518;28;20021;-80
2021/07/28 11:13:20;;;;;;;10.32;4.85;;;21.00;61.80;;;;;;5052683;28;20035;-80
2021/07/28 11:15:53;;;;;;;5.90;3.40;;;21.00;62.60;;;;;;5053342;28;20359;-81
2021/07/28 11:18:31;;;;;;;6.15;3.83;;;20.90;60.00;;;;;;5052570;28;20535;-79
2021/07/28 11:21:14;;;;;;;5.10;4.00;;;20.70;58.30;;;;;;5053014;28;20090;-78
2021/07/28 11:23:41;;;;;;;8.80;4.65;;;20.60;59.80;;;;;;5052628;28;20029;-80
2021/07/28 11:26:23;;;;;;;7.80;3.65;;;20.80;61.10;;;;;;5052496;28;20033;-79
2021/07/28 11:28:51;;;;;;;6.45;3.70;;;20.90;61.80;;;;;;5052603;28;20032;-78
2021/07/28 11:31:24;;;;;;;6.28;3.85;;;21.40;60.40;;;;;;5052220;28;20029;-79
2021/07/28 11:33:49;;;;;;;5.18;3.50;;;21.90;58.00;;;;;;5052807;28;20021;-80
2021/07/28 11:36:18;;;;;;;4.80;3.30;;;22.20;57.00;;;;;;5052242;28;20047;-80
2021/07/28 11:38:43;;;;;;;5.47;4.13;;;22.70;57.60;;;;;;5052317;28;20066;-80
2021/07/28 11:41:12;;;;;;;4.47;3.30;;;22.80;54.00;;;;;;5052207;28;20203;-80
2021/07/28 11:43:41;;;;;;;4.38;3.28;;;22.40;54.20;;;;;;5052267;28;20092;-76
2021/07/28 11:46:18;;;;;;;5.43;3.50;;;22.20;54.40;;;;;;5052079;28;20537;-76
2021/07/28 11:48:45;;;;;;;3.38;3.08;;;22.00;54.40;;;;;;5035471;28;20485;-78
2021/07/28 11:51:27;;;;;;;6.80;3.55;;;22.10;54.10;;;;;;5055994;28;20040;-76
2021/07/28 11:54:08;;;;;;;3.60;3.10;;;22.40;55.00;;;;;;5056164;28;20024;-75
2021/07/28 11:56:34;;;;;;;4.25;2.97;;;22.80;54.20;;;;;;5056308;28;20435;-78
2021/07/28 11:58:59;;;;;;;4.47;3.28;;;23.20;53.30;;;;;;5055960;28;20021;-80
2021/07/28 12:01:30;;;;;;;6.93;4.10;;;23.20;51.00;;;;;;5055899;28;20056;-76
2021/07/28 12:04:07;;;;;;;4.43;3.40;;;23.20;52.10;;;;;;5055992;28;20013;-77
2021/07/28 12:06:41;;;;;;;7.75;3.90;;;23.10;52.40;;;;;;5056126;28;20060;-76
2021/07/28 12:09:18;;;;;;;7.15;3.80;;;23.20;51.00;;;;;;5055866;28;20029;-79
2021/07/28 12:11:56;;;;;;;5.15;3.70;;;22.90;50.70;;;;;;5055806;28;20037;-75
2021/07/28 12:14:45;;;;;;;4.72;3.45;;;22.70;51.50;;;;;;5055853;28;20032;-76
2021/07/28 12:17:17;;;;;;;5.10;3.83;;;22.70;50.20;;;;;;5055752;28;20035;-77
2021/07/28 12:20:09;;;;;;;5.90;3.63;;;22.70;50.50;;;;;;5055800;28;20037;-76
2021/07/28 12:22:42;;;;;;;6.45;4.07;;;22.60;52.50;;;;;;5055751;28;20033;-76
2021/07/28 12:25:18;;;;;;;4.70;3.30;;;22.50;53.50;;;;;;5055669;28;20486;-77
2021/07/28 12:28:01;;;;;;;4.82;3.60;;;22.60;52.20;;;;;;5055549;28;20033;-75
2021/07/28 12:30:31;;;;;;;7.32;4.05;;;22.40;53.80;;;;;;5055554;28;20043;-79
2021/07/28 12:33:00;;;;;;;5.55;4.00;;;22.00;55.10;;;;;;5055529;28;20025;-75
2021/07/28 12:35:28;;;;;;;6.35;3.50;;;21.90;55.90;;;;;;5055492;28;20331;-76
2021/07/28 12:38:18;;;;;;;5.28;4.13;;;21.90;56.20;;;;;;5058857;28;20025;-77
2021/07/28 12:40:48;;;;;;;7.03;3.90;;;22.10;55.00;;;;;;5063661;28;20060;-78
2021/07/28 12:43:14;;;;;;;6.32;3.67;;;22.20;55.50;;;;;;5055468;28;20029;-76
2021/07/28 12:45:40;;;;;;;6.65;3.92;;;22.30;54.80;;;;;;5055968;28;20031;-76
2021/07/28 12:48:06;;;;;;;10.93;3.90;;;22.20;55.80;;;;;;5056113;28;20481;-76